sensor_id;sensor_type;location;lat;lon;timestamp;P1;durP1;ratioP1;P2;durP2;ratioP2
72198;SDS011;60103;51.014;16.992;2023-03-07T00:01:44;38.60;;;15.20;;
72198;SDS011;60103;51.014;16.992;2023-03-07T00:04:13;43.60;;;15.90;;
72198;SDS011;60103;51.014;16.992;2023-03-07T00:06:41;38.20;;;15.10;;
72198;SDS011;60103;51.014;16.992;2023-03-07T00:09:10;40.60;;;16.60;;
72198;SDS011;60103;51.014;16.992;2023-03-07T00:11:40;43.80;;;17.40;;
72198;SDS011;60103;51.014;16.992;2023-03-07T00:14:09;36.40;;;14.70;;
72198;SDS011;60103;51.014;16.992;2023-03-07T00:16:38;36.50;;;14.20;;
72198;SDS011;60103;51.014;16.992;2023-03-07T00:19:07;39.70;;;16.00;;
72198;SDS011;60103;51.014;16.992;2023-03-07T00:21:36;42.00;;;15.40;;
72198;SDS011;60103;51.014;16.992;2023-03-07T00:24:05;43.80;;;17.10;;
72198;SDS011;60103;51.014;16.992;2023-03-07T00:26:34;44.00;;;16.60;;
72198;SDS011;60103;51.014;16.992;2023-03-07T00:29:07;39.70;;;15.60;;
72198;SDS011;60103;51.014;16.992;2023-03-07T00:31:36;35.20;;;14.10;;
72198;SDS011;60103;51.014;16.992;2023-03-07T00:34:05;37.80;;;14.60;;
72198;SDS011;60103;51.014;16.992;2023-03-07T00:36:34;36.00;;;13.90;;
72198;SDS011;60103;51.014;16.992;2023-03-07T00:39:03;34.80;;;13.60;;
72198;SDS011;60103;51.014;16.992;2023-03-07T00:41:32;41.20;;;15.10;;
72198;SDS011;60103;51.014;16.992;2023-03-07T00:44:02;37.50;;;15.10;;
72198;SDS011;60103;51.014;16.992;2023-03-07T00:46:31;35.70;;;13.70;;
72198;SDS011;60103;51.014;16.992;2023-03-07T00:49:01;31.40;;;13.00;;
72198;SDS011;60103;51.014;16.992;2023-03-07T00:51:31;34.20;;;13.50;;
72198;SDS011;60103;51.014;16.992;2023-03-07T00:54:00;37.40;;;13.70;;
72198;SDS011;60103;51.014;16.992;2023-03-07T00:56:29;30.40;;;12.50;;
72198;SDS011;60103;51.014;16.992;2023-03-07T00:58:58;33.30;;;12.90;;
72198;SDS011;60103;51.014;16.992;2023-03-07T01:01:27;35.30;;;13.20;;
72198;SDS011;60103;51.014;16.992;2023-03-07T01:03:56;32.90;;;13.10;;
72198;SDS011;60103;51.014;16.992;2023-03-07T01:06:26;30.00;;;12.00;;
72198;SDS011;60103;51.014;16.992;2023-03-07T01:08:57;31.50;;;11.60;;
72198;SDS011;60103;51.014;16.992;2023-03-07T01:11:27;34.20;;;12.70;;
72198;SDS011;60103;51.014;16.992;2023-03-07T01:13:57;34.00;;;13.10;;
72198;SDS011;60103;51.014;16.992;2023-03-07T01:16:28;35.10;;;13.70;;
72198;SDS011;60103;51.014;16.992;2023-03-07T01:19:00;34.00;;;13.50;;
72198;SDS011;60103;51.014;16.992;2023-03-07T01:21:33;35.00;;;13.80;;
72198;SDS011;60103;51.014;16.992;2023-03-07T01:24:04;32.80;;;12.60;;
72198;SDS011;60103;51.014;16.992;2023-03-07T01:26:34;34.60;;;13.30;;
72198;SDS011;60103;51.014;16.992;2023-03-07T01:29:03;26.00;;;11.30;;
72198;SDS011;60103;51.014;16.992;2023-03-07T01:31:35;34.20;;;13.40;;
72198;SDS011;60103;51.014;16.992;2023-03-07T01:34:04;31.20;;;12.30;;
72198;SDS011;60103;51.014;16.992;2023-03-07T01:36:35;37.70;;;14.20;;
72198;SDS011;60103;51.014;16.992;2023-03-07T01:39:12;34.40;;;13.20;;
72198;SDS011;60103;51.014;16.992;2023-03-07T01:41:50;34.40;;;12.80;;
72198;SDS011;60103;51.014;16.992;2023-03-07T01:44:23;34.30;;;14.00;;
72198;SDS011;60103;51.014;16.992;2023-03-07T01:46:53;35.60;;;13.50;;
72198;SDS011;60103;51.014;16.992;2023-03-07T01:49:28;34.90;;;14.10;;
72198;SDS011;60103;51.014;16.992;2023-03-07T01:52:14;33.50;;;13.40;;
72198;SDS011;60103;51.014;16.992;2023-03-07T01:54:50;37.30;;;12.90;;
72198;SDS011;60103;51.014;16.992;2023-03-07T01:57:23;38.40;;;13.80;;
72198;SDS011;60103;51.014;16.992;2023-03-07T01:59:57;37.80;;;13.20;;
72198;SDS011;60103;51.014;16.992;2023-03-07T02:02:27;36.50;;;14.60;;
72198;SDS011;60103;51.014;16.992;2023-03-07T02:05:09;36.90;;;14.40;;
72198;SDS011;60103;51.014;16.992;2023-03-07T02:07:47;36.80;;;14.80;;
72198;SDS011;60103;51.014;16.992;2023-03-07T02:10:20;35.60;;;13.90;;
72198;SDS011;60103;51.014;16.992;2023-03-07T02:12:51;33.90;;;12.30;;
72198;SDS011;60103;51.014;16.992;2023-03-07T02:15:21;33.70;;;13.00;;
72198;SDS011;60103;51.014;16.992;2023-03-07T02:17:50;34.00;;;13.60;;
72198;SDS011;60103;51.014;16.992;2023-03-07T02:20:25;38.00;;;13.00;;
72198;SDS011;60103;51.014;16.992;2023-03-07T02:22:59;36.20;;;14.00;;
72198;SDS011;60103;51.014;16.992;2023-03-07T02:25:33;34.60;;;12.60;;
72198;SDS011;60103;51.014;16.992;2023-03-07T02:28:07;32.90;;;12.80;;
72198;SDS011;60103;51.014;16.992;2023-03-07T02:30:51;38.00;;;14.20;;
72198;SDS011;60103;51.014;16.992;2023-03-07T02:33:30;32.70;;;12.10;;
72198;SDS011;60103;51.014;16.992;2023-03-07T02:36:06;32.00;;;12.10;;
72198;SDS011;60103;51.014;16.992;2023-03-07T02:38:43;26.20;;;10.10;;
72198;SDS011;60103;51.014;16.992;2023-03-07T02:41:14;32.50;;;12.50;;
72198;SDS011;60103;51.014;16.992;2023-03-07T02:43:47;33.30;;;12.90;;
72198;SDS011;60103;51.014;16.992;2023-03-07T02:46:16;33.90;;;12.80;;
72198;SDS011;60103;51.014;16.992;2023-03-07T02:48:45;38.70;;;14.20;;
72198;SDS011;60103;51.014;16.992;2023-03-07T02:51:15;31.90;;;12.00;;
72198;SDS011;60103;51.014;16.992;2023-03-07T02:53:44;34.50;;;13.20;;
72198;SDS011;60103;51.014;16.992;2023-03-07T02:56:13;32.10;;;12.50;;
72198;SDS011;60103;51.014;16.992;2023-03-07T02:58:42;28.30;;;12.00;;
72198;SDS011;60103;51.014;16.992;2023-03-07T03:01:11;28.30;;;11.20;;
72198;SDS011;60103;51.014;16.992;2023-03-07T03:03:39;29.80;;;11.50;;
72198;SDS011;60103;51.014;16.992;2023-03-07T03:06:08;33.70;;;11.90;;
72198;SDS011;60103;51.014;16.992;2023-03-07T03:08:38;36.40;;;13.90;;
72198;SDS011;60103;51.014;16.992;2023-03-07T03:11:07;33.60;;;12.90;;
72198;SDS011;60103;51.014;16.992;2023-03-07T03:13:36;32.10;;;12.60;;
72198;SDS011;60103;51.014;16.992;2023-03-07T03:16:06;33.70;;;12.60;;
72198;SDS011;60103;51.014;16.992;2023-03-07T03:18:35;33.10;;;12.50;;
72198;SDS011;60103;51.014;16.992;2023-03-07T03:21:06;31.00;;;12.40;;
72198;SDS011;60103;51.014;16.992;2023-03-07T03:23:36;33.10;;;13.30;;
72198;SDS011;60103;51.014;16.992;2023-03-07T03:26:06;35.00;;;13.30;;
72198;SDS011;60103;51.014;16.992;2023-03-07T03:28:38;29.10;;;12.20;;
72198;SDS011;60103;51.014;16.992;2023-03-07T03:31:09;31.50;;;12.60;;
72198;SDS011;60103;51.014;16.992;2023-03-07T03:33:39;32.40;;;12.60;;
72198;SDS011;60103;51.014;16.992;2023-03-07T03:36:12;28.90;;;11.20;;
72198;SDS011;60103;51.014;16.992;2023-03-07T03:38:44;23.30;;;9.00;;
72198;SDS011;60103;51.014;16.992;2023-03-07T03:41:13;28.80;;;11.90;;
72198;SDS011;60103;51.014;16.992;2023-03-07T03:43:47;29.10;;;11.80;;
72198;SDS011;60103;51.014;16.992;2023-03-07T03:46:16;31.20;;;12.00;;
72198;SDS011;60103;51.014;16.992;2023-03-07T03:48:53;32.10;;;11.80;;
72198;SDS011;60103;51.014;16.992;2023-03-07T03:51:24;34.20;;;14.30;;
72198;SDS011;60103;51.014;16.992;2023-03-07T03:53:54;32.90;;;12.20;;
72198;SDS011;60103;51.014;16.992;2023-03-07T03:56:25;35.20;;;13.50;;
72198;SDS011;60103;51.014;16.992;2023-03-07T03:58:55;30.80;;;10.80;;
72198;SDS011;60103;51.014;16.992;2023-03-07T04:01:26;27.90;;;10.00;;
72198;SDS011;60103;51.014;16.992;2023-03-07T04:03:56;31.90;;;12.70;;
72198;SDS011;60103;51.014;16.992;2023-03-07T04:06:26;30.20;;;11.50;;
72198;SDS011;60103;51.014;16.992;2023-03-07T04:08:57;32.20;;;12.10;;
72198;SDS011;60103;51.014;16.992;2023-03-07T04:11:27;29.60;;;11.70;;
72198;SDS011;60103;51.014;16.992;2023-03-07T04:13:55;31.50;;;11.50;;
72198;SDS011;60103;51.014;16.992;2023-03-07T04:16:24;25.10;;;9.90;;
72198;SDS011;60103;51.014;16.992;2023-03-07T04:18:53;35.00;;;12.40;;
72198;SDS011;60103;51.014;16.992;2023-03-07T04:21:22;35.70;;;12.00;;
72198;SDS011;60103;51.014;16.992;2023-03-07T04:23:54;31.30;;;11.20;;
72198;SDS011;60103;51.014;16.992;2023-03-07T04:26:30;28.90;;;10.30;;
72198;SDS011;60103;51.014;16.992;2023-03-07T04:28:59;30.20;;;12.30;;
72198;SDS011;60103;51.014;16.992;2023-03-07T04:31:40;28.30;;;11.10;;
72198;SDS011;60103;51.014;16.992;2023-03-07T04:34:10;27.40;;;10.00;;
72198;SDS011;60103;51.014;16.992;2023-03-07T04:36:39;27.80;;;10.90;;
72198;SDS011;60103;51.014;16.992;2023-03-07T04:39:08;27.30;;;10.10;;
72198;SDS011;60103;51.014;16.992;2023-03-07T04:41:37;29.40;;;10.50;;
72198;SDS011;60103;51.014;16.992;2023-03-07T04:44:15;23.70;;;8.90;;
72198;SDS011;60103;51.014;16.992;2023-03-07T04:46:44;23.80;;;8.70;;
72198;SDS011;60103;51.014;16.992;2023-03-07T04:49:13;31.70;;;11.20;;
72198;SDS011;60103;51.014;16.992;2023-03-07T04:51:42;22.80;;;8.60;;
72198;SDS011;60103;51.014;16.992;2023-03-07T05:16:26;22.30;;;8.80;;
72198;SDS011;60103;51.014;16.992;2023-03-07T05:18:55;26.00;;;9.30;;
72198;SDS011;60103;51.014;16.992;2023-03-07T05:21:24;29.50;;;10.20;;
72198;SDS011;60103;51.014;16.992;2023-03-07T05:23:52;22.80;;;8.20;;
72198;SDS011;60103;51.014;16.992;2023-03-07T05:26:21;24.40;;;9.20;;
72198;SDS011;60103;51.014;16.992;2023-03-07T05:28:50;27.90;;;10.10;;
72198;SDS011;60103;51.014;16.992;2023-03-07T05:31:19;24.20;;;9.70;;
72198;SDS011;60103;51.014;16.992;2023-03-07T05:33:48;30.90;;;11.70;;
72198;SDS011;60103;51.014;16.992;2023-03-07T05:36:17;31.50;;;11.00;;
72198;SDS011;60103;51.014;16.992;2023-03-07T05:38:46;26.20;;;10.50;;
72198;SDS011;60103;51.014;16.992;2023-03-07T05:41:15;27.20;;;9.40;;
72198;SDS011;60103;51.014;16.992;2023-03-07T05:43:45;24.30;;;9.80;;
72198;SDS011;60103;51.014;16.992;2023-03-07T05:46:14;25.50;;;10.10;;
72198;SDS011;60103;51.014;16.992;2023-03-07T05:48:44;22.30;;;8.70;;
72198;SDS011;60103;51.014;16.992;2023-03-07T05:51:12;28.10;;;11.60;;
72198;SDS011;60103;51.014;16.992;2023-03-07T05:53:41;26.90;;;11.20;;
72198;SDS011;60103;51.014;16.992;2023-03-07T05:56:11;27.80;;;10.60;;
72198;SDS011;60103;51.014;16.992;2023-03-07T05:58:39;28.90;;;10.00;;
72198;SDS011;60103;51.014;16.992;2023-03-07T06:01:09;25.20;;;7.90;;
72198;SDS011;60103;51.014;16.992;2023-03-07T06:03:38;25.00;;;9.20;;
72198;SDS011;60103;51.014;16.992;2023-03-07T06:06:08;20.20;;;6.40;;
72198;SDS011;60103;51.014;16.992;2023-03-07T06:08:37;23.90;;;8.70;;
72198;SDS011;60103;51.014;16.992;2023-03-07T06:11:08;27.80;;;11.00;;
72198;SDS011;60103;51.014;16.992;2023-03-07T06:13:37;29.80;;;11.50;;
72198;SDS011;60103;51.014;16.992;2023-03-07T06:16:06;28.70;;;10.10;;
72198;SDS011;60103;51.014;16.992;2023-03-07T06:18:38;27.40;;;9.40;;
72198;SDS011;60103;51.014;16.992;2023-03-07T06:21:08;31.20;;;10.00;;
72198;SDS011;60103;51.014;16.992;2023-03-07T06:23:41;28.10;;;9.30;;
72198;SDS011;60103;51.014;16.992;2023-03-07T06:26:13;24.30;;;8.10;;
72198;SDS011;60103;51.014;16.992;2023-03-07T06:28:46;21.80;;;7.80;;
72198;SDS011;60103;51.014;16.992;2023-03-07T06:31:17;25.50;;;9.60;;
72198;SDS011;60103;51.014;16.992;2023-03-07T06:33:47;27.30;;;10.60;;
72198;SDS011;60103;51.014;16.992;2023-03-07T06:36:17;26.90;;;10.70;;
72198;SDS011;60103;51.014;16.992;2023-03-07T06:38:50;25.90;;;10.40;;
72198;SDS011;60103;51.014;16.992;2023-03-07T06:41:19;18.80;;;7.80;;
72198;SDS011;60103;51.014;16.992;2023-03-07T06:43:52;27.10;;;10.00;;
72198;SDS011;60103;51.014;16.992;2023-03-07T06:46:25;21.90;;;8.60;;
72198;SDS011;60103;51.014;16.992;2023-03-07T06:48:54;25.70;;;10.20;;
72198;SDS011;60103;51.014;16.992;2023-03-07T06:51:24;25.90;;;10.20;;
72198;SDS011;60103;51.014;16.992;2023-03-07T06:53:55;20.30;;;7.60;;
72198;SDS011;60103;51.014;16.992;2023-03-07T06:56:25;26.40;;;9.80;;
72198;SDS011;60103;51.014;16.992;2023-03-07T06:58:55;25.50;;;11.00;;
72198;SDS011;60103;51.014;16.992;2023-03-07T07:01:24;23.80;;;9.60;;
72198;SDS011;60103;51.014;16.992;2023-03-07T07:03:55;28.50;;;11.30;;
72198;SDS011;60103;51.014;16.992;2023-03-07T07:06:24;23.90;;;10.40;;
72198;SDS011;60103;51.014;16.992;2023-03-07T07:09:00;20.90;;;7.80;;
72198;SDS011;60103;51.014;16.992;2023-03-07T07:11:32;27.40;;;10.20;;
72198;SDS011;60103;51.014;16.992;2023-03-07T07:14:03;24.90;;;10.30;;
72198;SDS011;60103;51.014;16.992;2023-03-07T07:16:33;22.30;;;9.10;;
72198;SDS011;60103;51.014;16.992;2023-03-07T07:19:04;25.40;;;10.30;;
72198;SDS011;60103;51.014;16.992;2023-03-07T07:21:35;29.50;;;11.20;;
72198;SDS011;60103;51.014;16.992;2023-03-07T07:24:04;25.70;;;10.20;;
72198;SDS011;60103;51.014;16.992;2023-03-07T07:26:33;23.70;;;9.60;;
72198;SDS011;60103;51.014;16.992;2023-03-07T07:29:02;25.10;;;9.70;;
72198;SDS011;60103;51.014;16.992;2023-03-07T07:31:31;26.00;;;11.40;;
72198;SDS011;60103;51.014;16.992;2023-03-07T07:56:28;23.50;;;9.70;;
72198;SDS011;60103;51.014;16.992;2023-03-07T07:58:58;24.20;;;9.90;;
72198;SDS011;60103;51.014;16.992;2023-03-07T08:01:27;27.60;;;11.40;;
72198;SDS011;60103;51.014;16.992;2023-03-07T08:03:57;25.40;;;10.60;;
72198;SDS011;60103;51.014;16.992;2023-03-07T08:06:27;24.60;;;10.00;;
72198;SDS011;60103;51.014;16.992;2023-03-07T08:08:56;24.50;;;10.50;;
72198;SDS011;60103;51.014;16.992;2023-03-07T08:11:27;23.10;;;9.40;;
72198;SDS011;60103;51.014;16.992;2023-03-07T08:13:56;21.80;;;8.70;;
72198;SDS011;60103;51.014;16.992;2023-03-07T08:16:24;20.50;;;9.00;;
72198;SDS011;60103;51.014;16.992;2023-03-07T08:18:55;23.20;;;10.20;;
72198;SDS011;60103;51.014;16.992;2023-03-07T08:21:25;19.90;;;7.90;;
72198;SDS011;60103;51.014;16.992;2023-03-07T08:23:54;18.90;;;8.80;;
72198;SDS011;60103;51.014;16.992;2023-03-07T08:26:24;18.20;;;7.80;;
72198;SDS011;60103;51.014;16.992;2023-03-07T08:28:53;17.70;;;7.40;;
72198;SDS011;60103;51.014;16.992;2023-03-07T08:31:24;17.20;;;7.90;;
72198;SDS011;60103;51.014;16.992;2023-03-07T08:33:53;19.80;;;9.10;;
72198;SDS011;60103;51.014;16.992;2023-03-07T08:36:22;18.90;;;9.10;;
72198;SDS011;60103;51.014;16.992;2023-03-07T08:38:51;19.30;;;8.10;;
72198;SDS011;60103;51.014;16.992;2023-03-07T08:41:21;16.60;;;6.60;;
72198;SDS011;60103;51.014;16.992;2023-03-07T08:43:50;15.40;;;6.70;;
72198;SDS011;60103;51.014;16.992;2023-03-07T08:46:19;18.90;;;7.70;;
72198;SDS011;60103;51.014;16.992;2023-03-07T08:48:48;17.00;;;6.80;;
72198;SDS011;60103;51.014;16.992;2023-03-07T08:51:17;17.70;;;7.30;;
72198;SDS011;60103;51.014;16.992;2023-03-07T08:53:47;16.70;;;6.60;;
72198;SDS011;60103;51.014;16.992;2023-03-07T08:56:16;16.80;;;7.00;;
72198;SDS011;60103;51.014;16.992;2023-03-07T08:58:46;18.40;;;8.50;;
72198;SDS011;60103;51.014;16.992;2023-03-07T09:01:15;15.70;;;7.00;;
72198;SDS011;60103;51.014;16.992;2023-03-07T09:03:45;17.10;;;7.60;;
72198;SDS011;60103;51.014;16.992;2023-03-07T09:06:15;16.20;;;6.70;;
72198;SDS011;60103;51.014;16.992;2023-03-07T09:08:45;18.70;;;7.90;;
72198;SDS011;60103;51.014;16.992;2023-03-07T09:11:15;15.30;;;6.60;;
72198;SDS011;60103;51.014;16.992;2023-03-07T09:13:45;13.80;;;6.40;;
72198;SDS011;60103;51.014;16.992;2023-03-07T09:16:20;16.20;;;7.00;;
72198;SDS011;60103;51.014;16.992;2023-03-07T09:18:49;15.10;;;6.30;;
72198;SDS011;60103;51.014;16.992;2023-03-07T09:21:19;20.80;;;8.20;;
72198;SDS011;60103;51.014;16.992;2023-03-07T09:23:48;18.50;;;6.50;;
72198;SDS011;60103;51.014;16.992;2023-03-07T09:26:18;14.80;;;6.50;;
72198;SDS011;60103;51.014;16.992;2023-03-07T09:28:47;16.30;;;6.90;;
72198;SDS011;60103;51.014;16.992;2023-03-07T09:31:17;18.20;;;7.80;;
72198;SDS011;60103;51.014;16.992;2023-03-07T09:33:47;16.50;;;6.90;;
72198;SDS011;60103;51.014;16.992;2023-03-07T09:36:16;16.40;;;7.20;;
72198;SDS011;60103;51.014;16.992;2023-03-07T09:38:46;14.50;;;6.70;;
72198;SDS011;60103;51.014;16.992;2023-03-07T09:43:54;16.60;;;7.10;;
72198;SDS011;60103;51.014;16.992;2023-03-07T09:49:33;15.10;;;6.20;;
72198;SDS011;60103;51.014;16.992;2023-03-07T09:52:21;14.20;;;6.30;;
72198;SDS011;60103;51.014;16.992;2023-03-07T09:55:00;12.80;;;5.30;;
72198;SDS011;60103;51.014;16.992;2023-03-07T09:57:35;13.40;;;6.20;;
72198;SDS011;60103;51.014;16.992;2023-03-07T10:06:07;14.10;;;6.90;;
72198;SDS011;60103;51.014;16.992;2023-03-07T10:08:39;12.40;;;5.80;;
72198;SDS011;60103;51.014;16.992;2023-03-07T10:11:43;13.80;;;5.30;;
72198;SDS011;60103;51.014;16.992;2023-03-07T10:28:45;14.60;;;6.10;;
72198;SDS011;60103;51.014;16.992;2023-03-07T10:31:15;15.60;;;5.70;;
72198;SDS011;60103;51.014;16.992;2023-03-07T10:33:47;14.90;;;6.50;;
72198;SDS011;60103;51.014;16.992;2023-03-07T10:36:18;13.20;;;5.90;;
72198;SDS011;60103;51.014;16.992;2023-03-07T10:41:23;14.80;;;6.50;;
72198;SDS011;60103;51.014;16.992;2023-03-07T10:43:52;13.80;;;6.50;;
72198;SDS011;60103;51.014;16.992;2023-03-07T10:46:28;13.40;;;6.30;;
72198;SDS011;60103;51.014;16.992;2023-03-07T10:49:08;12.70;;;5.90;;
72198;SDS011;60103;51.014;16.992;2023-03-07T10:51:52;13.60;;;6.10;;
72198;SDS011;60103;51.014;16.992;2023-03-07T10:54:27;14.10;;;5.70;;
72198;SDS011;60103;51.014;16.992;2023-03-07T10:59:41;13.30;;;5.60;;
72198;SDS011;60103;51.014;16.992;2023-03-07T11:05:03;14.70;;;5.50;;
72198;SDS011;60103;51.014;16.992;2023-03-07T11:07:52;11.20;;;5.00;;
72198;SDS011;60103;51.014;16.992;2023-03-07T11:10:34;12.30;;;5.30;;
72198;SDS011;60103;51.014;16.992;2023-03-07T11:13:06;12.50;;;5.90;;
72198;SDS011;60103;51.014;16.992;2023-03-07T11:15:44;11.20;;;4.70;;
72198;SDS011;60103;51.014;16.992;2023-03-07T11:21:27;12.40;;;5.30;;
72198;SDS011;60103;51.014;16.992;2023-03-07T11:24:03;12.50;;;6.00;;
72198;SDS011;60103;51.014;16.992;2023-03-07T11:26:38;13.20;;;5.30;;
72198;SDS011;60103;51.014;16.992;2023-03-07T11:29:08;12.30;;;4.60;;
72198;SDS011;60103;51.014;16.992;2023-03-07T11:32:00;11.80;;;4.70;;
72198;SDS011;60103;51.014;16.992;2023-03-07T11:34:35;11.90;;;4.90;;
72198;SDS011;60103;51.014;16.992;2023-03-07T11:42:43;13.10;;;5.30;;
72198;SDS011;60103;51.014;16.992;2023-03-07T11:48:25;13.60;;;4.90;;
72198;SDS011;60103;51.014;16.992;2023-03-07T11:51:27;11.90;;;4.80;;
72198;SDS011;60103;51.014;16.992;2023-03-07T12:00:20;12.20;;;4.90;;
72198;SDS011;60103;51.014;16.992;2023-03-07T12:14:26;11.80;;;5.20;;
72198;SDS011;60103;51.014;16.992;2023-03-07T12:17:01;11.70;;;4.90;;
72198;SDS011;60103;51.014;16.992;2023-03-07T12:20:25;11.20;;;4.10;;
72198;SDS011;60103;51.014;16.992;2023-03-07T12:25:51;10.50;;;4.70;;
72198;SDS011;60103;51.014;16.992;2023-03-07T12:28:24;11.30;;;4.60;;
72198;SDS011;60103;51.014;16.992;2023-03-07T12:31:16;12.70;;;4.90;;
72198;SDS011;60103;51.014;16.992;2023-03-07T12:39:21;10.70;;;4.30;;
72198;SDS011;60103;51.014;16.992;2023-03-07T12:44:33;11.40;;;4.70;;
72198;SDS011;60103;51.014;16.992;2023-03-07T12:47:13;11.80;;;4.30;;
72198;SDS011;60103;51.014;16.992;2023-03-07T12:52:49;12.60;;;5.00;;
72198;SDS011;60103;51.014;16.992;2023-03-07T12:55:26;11.50;;;4.60;;
72198;SDS011;60103;51.014;16.992;2023-03-07T13:00:38;11.50;;;4.50;;
72198;SDS011;60103;51.014;16.992;2023-03-07T13:03:10;11.20;;;4.20;;
72198;SDS011;60103;51.014;16.992;2023-03-07T13:05:46;9.70;;;3.50;;
72198;SDS011;60103;51.014;16.992;2023-03-07T13:08:18;12.90;;;4.80;;
72198;SDS011;60103;51.014;16.992;2023-03-07T13:10:50;13.20;;;4.70;;
72198;SDS011;60103;51.014;16.992;2023-03-07T13:16:11;11.70;;;4.50;;
72198;SDS011;60103;51.014;16.992;2023-03-07T13:24:45;11.30;;;4.00;;
72198;SDS011;60103;51.014;16.992;2023-03-07T13:27:15;11.30;;;4.00;;
72198;SDS011;60103;51.014;16.992;2023-03-07T13:30:03;11.20;;;4.30;;
72198;SDS011;60103;51.014;16.992;2023-03-07T13:40:53;10.80;;;4.20;;
72198;SDS011;60103;51.014;16.992;2023-03-07T13:45:59;10.80;;;3.90;;
72198;SDS011;60103;51.014;16.992;2023-03-07T14:01:47;10.80;;;3.80;;
72198;SDS011;60103;51.014;16.992;2023-03-07T14:07:09;10.40;;;4.10;;
72198;SDS011;60103;51.014;16.992;2023-03-07T14:09:46;9.90;;;3.80;;
72198;SDS011;60103;51.014;16.992;2023-03-07T14:14:58;11.60;;;4.10;;
72198;SDS011;60103;51.014;16.992;2023-03-07T14:21:39;8.90;;;3.40;;
72198;SDS011;60103;51.014;16.992;2023-03-07T14:31:25;11.60;;;4.50;;
72198;SDS011;60103;51.014;16.992;2023-03-07T14:33:57;13.90;;;4.50;;
72198;SDS011;60103;51.014;16.992;2023-03-07T14:36:26;10.30;;;4.20;;
72198;SDS011;60103;51.014;16.992;2023-03-07T14:38:57;10.30;;;3.80;;
72198;SDS011;60103;51.014;16.992;2023-03-07T14:52:11;9.60;;;4.20;;
72198;SDS011;60103;51.014;16.992;2023-03-07T14:54:58;10.70;;;4.10;;
72198;SDS011;60103;51.014;16.992;2023-03-07T14:57:33;11.30;;;4.10;;
72198;SDS011;60103;51.014;16.992;2023-03-07T15:00:20;9.90;;;3.50;;
72198;SDS011;60103;51.014;16.992;2023-03-07T15:02:54;10.30;;;4.30;;
72198;SDS011;60103;51.014;16.992;2023-03-07T15:05:31;11.70;;;4.80;;
72198;SDS011;60103;51.014;16.992;2023-03-07T15:08:15;12.50;;;5.70;;
72198;SDS011;60103;51.014;16.992;2023-03-07T15:10:55;10.60;;;4.20;;
72198;SDS011;60103;51.014;16.992;2023-03-07T15:13:37;12.40;;;5.00;;
72198;SDS011;60103;51.014;16.992;2023-03-07T15:16:15;10.60;;;4.10;;
72198;SDS011;60103;51.014;16.992;2023-03-07T15:18:49;9.30;;;3.60;;
72198;SDS011;60103;51.014;16.992;2023-03-07T15:21:23;11.30;;;4.20;;
72198;SDS011;60103;51.014;16.992;2023-03-07T15:23:53;13.70;;;5.30;;
72198;SDS011;60103;51.014;16.992;2023-03-07T15:26:24;11.30;;;4.40;;
72198;SDS011;60103;51.014;16.992;2023-03-07T15:29:07;10.30;;;4.10;;
72198;SDS011;60103;51.014;16.992;2023-03-07T15:31:49;11.20;;;5.60;;
72198;SDS011;60103;51.014;16.992;2023-03-07T15:40:00;12.20;;;4.90;;
72198;SDS011;60103;51.014;16.992;2023-03-07T15:45:35;12.40;;;4.60;;
72198;SDS011;60103;51.014;16.992;2023-03-07T15:51:00;12.20;;;4.30;;
72198;SDS011;60103;51.014;16.992;2023-03-07T15:53:35;11.10;;;4.50;;
72198;SDS011;60103;51.014;16.992;2023-03-07T15:56:28;11.10;;;4.80;;
72198;SDS011;60103;51.014;16.992;2023-03-07T15:59:05;13.80;;;6.10;;
72198;SDS011;60103;51.014;16.992;2023-03-07T16:01:45;12.40;;;5.30;;
72198;SDS011;60103;51.014;16.992;2023-03-07T16:07:04;11.00;;;4.00;;
72198;SDS011;60103;51.014;16.992;2023-03-07T16:09:35;11.00;;;4.40;;
72198;SDS011;60103;51.014;16.992;2023-03-07T16:12:10;12.10;;;4.20;;
72198;SDS011;60103;51.014;16.992;2023-03-07T16:14:42;11.50;;;4.00;;
72198;SDS011;60103;51.014;16.992;2023-03-07T16:17:33;10.40;;;4.10;;
72198;SDS011;60103;51.014;16.992;2023-03-07T16:20:11;9.20;;;3.60;;
72198;SDS011;60103;51.014;16.992;2023-03-07T16:22:43;10.40;;;4.10;;
72198;SDS011;60103;51.014;16.992;2023-03-07T16:25:18;10.70;;;4.50;;
72198;SDS011;60103;51.014;16.992;2023-03-07T16:27:49;9.20;;;3.50;;
72198;SDS011;60103;51.014;16.992;2023-03-07T16:30:22;11.50;;;4.50;;
72198;SDS011;60103;51.014;16.992;2023-03-07T16:32:52;10.40;;;4.00;;
72198;SDS011;60103;51.014;16.992;2023-03-07T16:35:23;11.50;;;4.30;;
72198;SDS011;60103;51.014;16.992;2023-03-07T16:37:54;10.70;;;4.10;;
72198;SDS011;60103;51.014;16.992;2023-03-07T16:40:23;11.00;;;4.20;;
72198;SDS011;60103;51.014;16.992;2023-03-07T16:42:54;13.60;;;5.10;;
72198;SDS011;60103;51.014;16.992;2023-03-07T16:45:25;10.60;;;4.00;;
72198;SDS011;60103;51.014;16.992;2023-03-07T16:47:57;12.10;;;4.40;;
72198;SDS011;60103;51.014;16.992;2023-03-07T16:50:30;14.40;;;5.50;;
72198;SDS011;60103;51.014;16.992;2023-03-07T16:53:02;12.90;;;4.90;;
72198;SDS011;60103;51.014;16.992;2023-03-07T16:55:32;13.00;;;5.40;;
72198;SDS011;60103;51.014;16.992;2023-03-07T16:58:01;11.50;;;4.50;;
72198;SDS011;60103;51.014;16.992;2023-03-07T17:00:31;11.30;;;4.70;;
72198;SDS011;60103;51.014;16.992;2023-03-07T17:03:02;12.00;;;4.50;;
72198;SDS011;60103;51.014;16.992;2023-03-07T17:05:31;11.10;;;3.80;;
72198;SDS011;60103;51.014;16.992;2023-03-07T17:08:00;10.20;;;4.40;;
72198;SDS011;60103;51.014;16.992;2023-03-07T17:10:29;11.40;;;5.20;;
72198;SDS011;60103;51.014;16.992;2023-03-07T17:12:59;12.10;;;4.80;;
72198;SDS011;60103;51.014;16.992;2023-03-07T17:15:30;11.40;;;4.10;;
72198;SDS011;60103;51.014;16.992;2023-03-07T17:18:01;11.90;;;4.80;;
72198;SDS011;60103;51.014;16.992;2023-03-07T17:20:31;10.50;;;3.60;;
72198;SDS011;60103;51.014;16.992;2023-03-07T17:23:01;10.00;;;3.70;;
72198;SDS011;60103;51.014;16.992;2023-03-07T17:25:32;11.80;;;5.00;;
72198;SDS011;60103;51.014;16.992;2023-03-07T17:28:03;11.90;;;4.30;;
72198;SDS011;60103;51.014;16.992;2023-03-07T17:30:37;14.10;;;5.50;;
72198;SDS011;60103;51.014;16.992;2023-03-07T17:33:11;11.10;;;4.50;;
72198;SDS011;60103;51.014;16.992;2023-03-07T17:35:42;11.70;;;4.50;;
72198;SDS011;60103;51.014;16.992;2023-03-07T17:38:12;10.90;;;4.30;;
72198;SDS011;60103;51.014;16.992;2023-03-07T17:40:43;12.40;;;4.30;;
72198;SDS011;60103;51.014;16.992;2023-03-07T17:43:13;11.40;;;4.40;;
72198;SDS011;60103;51.014;16.992;2023-03-07T17:45:43;13.20;;;5.10;;
72198;SDS011;60103;51.014;16.992;2023-03-07T17:48:13;11.20;;;4.20;;
72198;SDS011;60103;51.014;16.992;2023-03-07T17:50:45;10.10;;;3.70;;
72198;SDS011;60103;51.014;16.992;2023-03-07T17:53:15;12.50;;;3.90;;
72198;SDS011;60103;51.014;16.992;2023-03-07T17:55:46;10.00;;;3.90;;
72198;SDS011;60103;51.014;16.992;2023-03-07T17:58:17;11.80;;;4.30;;
72198;SDS011;60103;51.014;16.992;2023-03-07T18:00:49;10.30;;;3.40;;
72198;SDS011;60103;51.014;16.992;2023-03-07T18:03:24;13.20;;;4.70;;
72198;SDS011;60103;51.014;16.992;2023-03-07T18:05:55;11.90;;;4.50;;